Time;durP1;ratioP1;P1;durP2;ratioP2;P2;SDS_P1;SDS_P2;PMS_P1;PMS_P2;Temp;Humidity;BMP_temperature;BMP_pressure;BME280_temperature;BME280_humidity;BME280_pressure;Samples;Min_cycle;Max_cycle;Signal;HPM_P1;HPM_P2
2021/12/12 00:01:26;;;;;;;12.05;7.80;;;;;;;;;;5112875;28;20051;-64
2021/12/12 00:04:04;;;;;;;13.27;8.15;;;;;;;;;;5111940;28;20079;-63
2021/12/12 00:06:31;;;;;;;13.32;8.25;;;;;;;;;;5113095;28;20052;-63
2021/12/12 00:08:59;;;;;;;10.52;7.45;;;;;;;;;;5112811;28;20088;-63
2021/12/12 00:11:26;;;;;;;10.85;7.50;;;;;;;;;;5111987;28;20486;-64
2021/12/12 00:13:55;;;;;;;10.32;7.55;;;;;;;;;;5112547;28;20126;-63
2021/12/12 00:16:21;;;;;;;10.63;7.68;;;;;;;;;;5112607;28;20040;-63
2021/12/12 00:18:47;;;;;;;13.27;8.23;;;;;;;;;;5111980;28;20048;-63
2021/12/12 00:21:16;;;;;;;12.43;8.23;;;;;;;;;;5112556;28;20040;-63
2021/12/12 00:23:42;;;;;;;11.25;7.78;;;;;;;;;;5112463;28;20044;-63
2021/12/12 00:26:09;;;;;;;12.43;8.07;;;;;;;;;;5111940;27;20096;-63
2021/12/12 00:28:36;;;;;;;11.82;7.78;;;;;;;;;;5112522;28;20048;-63
2021/12/12 00:31:08;;;;;;;8.75;6.80;;;;;;;;;;5111874;28;20048;-64
2021/12/12 00:33:34;;;;;;;12.40;8.23;;;;;;;;;;5111873;28;20043;-63
2021/12/12 00:36:00;;;;;;;11.50;7.32;;;;;;;;;;5112256;28;20440;-64
2021/12/12 00:38:30;;;;;;;12.73;6.95;;;;;;;;;;5112452;28;20043;-64
2021/12/12 00:40:57;;;;;;;13.55;7.60;;;;;;;;;;5111161;28;20544;-63
2021/12/12 00:43:25;;;;;;;10.95;7.10;;;;;;;;;;5112070;28;20051;-64
2021/12/12 00:45:53;;;;;;;11.82;7.07;;;;;;;;;;5111096;28;20548;-63
2021/12/12 00:48:19;;;;;;;10.13;6.57;;;;;;;;;;5112084;28;20688;-63
2021/12/12 00:50:46;;;;;;;13.85;7.43;;;;;;;;;;5111896;28;20116;-63
2021/12/12 00:53:14;;;;;;;12.32;6.85;;;;;;;;;;5111579;28;20036;-63
2021/12/12 00:55:43;;;;;;;9.93;6.57;;;;;;;;;;5112169;28;20040;-63
2021/12/12 00:58:12;;;;;;;12.57;7.25;;;;;;;;;;5111861;28;20035;-63
2021/12/12 01:00:42;;;;;;;10.30;7.15;;;;;;;;;;5111216;28;20092;-63
2021/12/12 01:03:09;;;;;;;11.75;7.20;;;;;;;;;;5112190;28;20120;-63
2021/12/12 01:05:36;;;;;;;10.25;6.07;;;;;;;;;;5111656;28;20497;-63
2021/12/12 01:08:03;;;;;;;10.45;6.85;;;;;;;;;;5110858;28;20052;-63
2021/12/12 01:10:30;;;;;;;10.85;6.85;;;;;;;;;;5111637;28;20044;-63
2021/12/12 01:12:59;;;;;;;11.15;6.75;;;;;;;;;;5111749;28;20176;-63
2021/12/12 01:15:27;;;;;;;10.32;6.75;;;;;;;;;;5111109;28;20062;-63
2021/12/12 01:17:55;;;;;;;9.93;6.68;;;;;;;;;;5111935;28;20047;-63
2021/12/12 01:20:23;;;;;;;10.93;6.68;;;;;;;;;;5111689;28;20451;-63
2021/12/12 01:22:52;;;;;;;9.13;5.38;;;;;;;;;;5110678;28;20039;-63
2021/12/12 01:25:20;;;;;;;11.02;6.43;;;;;;;;;;5112131;28;20051;-63
2021/12/12 01:27:47;;;;;;;10.23;6.20;;;;;;;;;;5112025;28;20048;-63
2021/12/12 01:30:16;;;;;;;9.68;6.15;;;;;;;;;;5110895;28;20048;-64
2021/12/12 01:32:43;;;;;;;10.30;6.40;;;;;;;;;;5111367;28;20052;-64
2021/12/12 01:35:15;;;;;;;11.30;6.32;;;;;;;;;;5110855;28;20455;-64
2021/12/12 01:37:50;;;;;;;11.45;6.63;;;;;;;;;;5111395;28;20047;-64
2021/12/12 01:40:18;;;;;;;9.63;5.78;;;;;;;;;;5111713;28;20052;-64
2021/12/12 01:42:45;;;;;;;9.07;6.50;;;;;;;;;;5113661;28;20485;-64
2021/12/12 01:45:13;;;;;;;9.43;6.22;;;;;;;;;;5115673;28;20073;-64
2021/12/12 01:47:45;;;;;;;9.88;6.15;;;;;;;;;;5115778;28;20092;-64
2021/12/12 01:50:13;;;;;;;10.23;5.75;;;;;;;;;;5114860;28;20482;-64
2021/12/12 01:52:39;;;;;;;11.30;5.53;;;;;;;;;;5115920;28;20048;-64
2021/12/12 01:55:11;;;;;;;11.50;5.97;;;;;;;;;;5115353;28;20051;-64
2021/12/12 01:57:39;;;;;;;9.82;5.85;;;;;;;;;;5114863;28;20047;-64
2021/12/12 02:00:10;;;;;;;9.15;5.72;;;;;;;;;;5114969;28;20051;-63
2021/12/12 02:02:36;;;;;;;13.80;6.20;;;;;;;;;;5115459;28;20109;-64
2021/12/12 02:05:09;;;;;;;14.07;6.72;;;;;;;;;;5114456;28;20471;-64
2021/12/12 02:07:37;;;;;;;9.65;5.68;;;;;;;;;;5115245;28;20482;-64
2021/12/12 02:10:08;;;;;;;7.85;5.50;;;;;;;;;;5114525;28;20482;-64
2021/12/12 02:12:34;;;;;;;10.95;5.78;;;;;;;;;;5115227;28;20112;-64
2021/12/12 02:15:01;;;;;;;9.43;6.07;;;;;;;;;;5114978;28;20100;-63
2021/12/12 02:17:33;;;;;;;10.57;5.80;;;;;;;;;;5114577;28;20048;-63
2021/12/12 02:20:06;;;;;;;10.27;5.68;;;;;;;;;;5115026;28;20120;-63
2021/12/12 02:22:51;;;;;;;9.73;5.95;;;;;;;;;;5114961;28;20054;-63
2021/12/12 02:36:16;;;;;;;8.98;5.40;;;;;;;;;;5114794;28;20050;-64
2021/12/12 02:38:44;;;;;;;8.45;4.97;;;;;;;;;;5113714;28;20075;-64
2021/12/12 02:41:13;;;;;;;10.18;5.25;;;;;;;;;;5114899;28;20104;-64
2021/12/12 02:43:42;;;;;;;9.05;5.38;;;;;;;;;;5114791;28;20040;-64
2021/12/12 02:46:09;;;;;;;10.05;5.40;;;;;;;;;;5113575;28;20051;-63
2021/12/12 02:48:38;;;;;;;11.88;5.68;;;;;;;;;;5114421;28;20049;-63
2021/12/12 02:51:09;;;;;;;7.60;5.30;;;;;;;;;;5114382;28;20040;-64
2021/12/12 02:53:38;;;;;;;11.98;5.47;;;;;;;;;;5113863;28;20168;-64
2021/12/12 02:56:08;;;;;;;9.27;5.68;;;;;;;;;;5114298;28;20093;-63
2021/12/12 02:58:34;;;;;;;8.82;4.93;;;;;;;;;;5114239;28;20048;-64
2021/12/12 03:01:05;;;;;;;9.95;4.85;;;;;;;;;;5113187;28;20452;-64
2021/12/12 03:03:35;;;;;;;10.95;5.68;;;;;;;;;;5114459;28;20043;-63
2021/12/12 03:06:01;;;;;;;7.65;5.22;;;;;;;;;;5114002;28;20055;-64
2021/12/12 03:08:27;;;;;;;7.63;4.95;;;;;;;;;;5113492;28;20048;-63
2021/12/12 03:10:54;;;;;;;11.90;5.53;;;;;;;;;;5113861;28;20043;-64
2021/12/12 03:13:23;;;;;;;9.88;5.88;;;;;;;;;;5113646;28;20040;-64
2021/12/12 03:15:50;;;;;;;6.47;5.03;;;;;;;;;;5113714;28;20378;-64
2021/12/12 03:18:20;;;;;;;9.82;5.43;;;;;;;;;;5114095;28;20246;-64
2021/12/12 03:20:48;;;;;;;12.38;5.32;;;;;;;;;;5112955;28;20097;-64
2021/12/12 03:23:17;;;;;;;9.05;5.38;;;;;;;;;;5113821;28;20055;-64
2021/12/12 03:25:44;;;;;;;8.45;5.25;;;;;;;;;;5113476;28;20092;-63
2021/12/12 03:28:12;;;;;;;10.25;5.47;;;;;;;;;;5113480;28;20057;-64
2021/12/12 03:30:40;;;;;;;9.90;5.40;;;;;;;;;;5113911;28;20121;-64
2021/12/12 03:33:07;;;;;;;7.85;4.63;;;;;;;;;;5113614;28;20047;-64
2021/12/12 03:35:33;;;;;;;9.00;5.60;;;;;;;;;;5113008;28;20051;-64
2021/12/12 03:37:59;;;;;;;8.80;4.82;;;;;;;;;;5113262;28;20543;-63
2021/12/12 03:40:27;;;;;;;10.05;5.10;;;;;;;;;;5113566;28;20070;-63
2021/12/12 03:42:55;;;;;;;7.65;5.50;;;;;;;;;;5112770;28;20077;-64
2021/12/12 03:45:21;;;;;;;9.43;5.38;;;;;;;;;;5113473;28;20043;-64
2021/12/12 03:47:52;;;;;;;8.90;5.03;;;;;;;;;;5113219;28;20117;-64
2021/12/12 03:50:20;;;;;;;8.35;5.50;;;;;;;;;;5112720;28;20048;-64
2021/12/12 03:52:47;;;;;;;7.45;5.00;;;;;;;;;;5112927;28;20598;-64
2021/12/12 03:55:14;;;;;;;9.07;4.88;;;;;;;;;;5113156;28;20050;-64
2021/12/12 03:57:41;;;;;;;9.13;5.32;;;;;;;;;;5112739;28;20043;-63
2021/12/12 04:00:09;;;;;;;9.38;5.05;;;;;;;;;;5112722;28;20505;-64
2021/12/12 04:02:36;;;;;;;7.72;4.90;;;;;;;;;;5112781;28;20048;-64
2021/12/12 04:05:04;;;;;;;9.80;5.05;;;;;;;;;;5112368;28;20349;-64
2021/12/12 04:07:32;;;;;;;8.68;5.22;;;;;;;;;;5112955;28;20043;-64
2021/12/12 04:09:59;;;;;;;8.02;4.70;;;;;;;;;;5112137;28;20078;-64
2021/12/12 04:12:26;;;;;;;6.20;4.85;;;;;;;;;;5112949;28;20048;-64
2021/12/12 04:14:53;;;;;;;7.93;4.78;;;;;;;;;;5112688;28;20050;-64
2021/12/12 04:17:21;;;;;;;7.55;5.05;;;;;;;;;;5112134;28;20048;-64
2021/12/12 04:19:49;;;;;;;8.82;4.93;;;;;;;;;;5112544;28;20542;-63
2021/12/12 04:22:16;;;;;;;7.38;5.28;;;;;;;;;;5112673;28;20051;-64
2021/12/12 04:24:44;;;;;;;7.78;5.05;;;;;;;;;;5111849;28;20043;-63
2021/12/12 04:27:11;;;;;;;6.20;4.80;;;;;;;;;;5112599;28;20055;-64
2021/12/12 04:29:38;;;;;;;5.95;4.80;;;;;;;;;;5112838;28;20057;-63
2021/12/12 04:32:07;;;;;;;8.38;4.88;;;;;;;;;;5111487;28;20093;-64
2021/12/12 04:34:35;;;;;;;6.57;4.50;;;;;;;;;;5112339;28;20383;-64
2021/12/12 04:37:03;;;;;;;6.07;4.47;;;;;;;;;;5112317;28;20100;-63
2021/12/12 04:39:32;;;;;;;6.68;4.35;;;;;;;;;;5111876;28;20075;-64
2021/12/12 04:41:59;;;;;;;5.85;4.47;;;;;;;;;;5112099;28;20044;-64
2021/12/12 04:44:27;;;;;;;7.32;5.00;;;;;;;;;;5112395;28;20116;-64
2021/12/12 04:52:29;;;;;;;6.78;4.63;;;;;;;;;;5111040;28;20141;-64
2021/12/12 04:55:01;;;;;;;8.20;4.80;;;;;;;;;;5111785;28;20040;-64
2021/12/12 04:57:28;;;;;;;5.88;4.07;;;;;;;;;;5112066;28;20529;-64
2021/12/12 05:00:00;;;;;;;7.00;4.18;;;;;;;;;;5110875;28;20055;-64
2021/12/12 05:02:30;;;;;;;6.25;4.40;;;;;;;;;;5112155;28;20456;-63
2021/12/12 05:04:58;;;;;;;6.28;4.43;;;;;;;;;;5111887;28;20088;-63
2021/12/12 05:07:29;;;;;;;6.78;4.15;;;;;;;;;;5110978;28;20040;-63
2021/12/12 05:09:59;;;;;;;5.80;4.18;;;;;;;;;;5111763;28;20097;-63
2021/12/12 05:12:29;;;;;;;6.72;4.20;;;;;;;;;;5112033;28;20047;-63
2021/12/12 05:14:57;;;;;;;4.50;3.83;;;;;;;;;;5111122;28;20051;-63
2021/12/12 05:17:26;;;;;;;4.88;4.00;;;;;;;;;;5110994;28;20054;-64
2021/12/12 05:19:54;;;;;;;4.90;4.20;;;;;;;;;;5111422;28;20733;-63
2021/12/12 05:22:21;;;;;;;5.70;4.45;;;;;;;;;;5111077;28;20052;-64
2021/12/12 05:24:51;;;;;;;5.65;4.22;;;;;;;;;;5111413;28;20051;-64
2021/12/12 05:27:19;;;;;;;5.25;4.10;;;;;;;;;;5111066;28;20055;-64
2021/12/12 05:29:50;;;;;;;5.15;4.05;;;;;;;;;;5111542;28;20120;-64
2021/12/12 05:32:17;;;;;;;5.65;4.05;;;;;;;;;;5091242;28;20398;-64
2021/12/12 05:34:48;;;;;;;5.55;4.25;;;;;;;;;;5090258;28;20555;-64
2021/12/12 05:37:14;;;;;;;6.95;4.60;;;;;;;;;;5091152;28;20547;-64
2021/12/12 05:39:41;;;;;;;7.60;4.07;;;;;;;;;;5091443;28;20077;-64
2021/12/12 05:42:08;;;;;;;6.45;4.13;;;;;;;;;;5090660;28;20134;-64
2021/12/12 05:44:34;;;;;;;5.28;4.47;;;;;;;;;;5091280;28;20070;-64
2021/12/12 05:47:04;;;;;;;5.47;4.07;;;;;;;;;;5090847;28;21023;-64
2021/12/12 05:49:32;;;;;;;5.93;4.25;;;;;;;;;;5090279;28;20101;-64
2021/12/12 05:52:01;;;;;;;6.53;4.07;;;;;;;;;;5090950;28;20391;-64
2021/12/12 05:54:29;;;;;;;5.78;3.80;;;;;;;;;;5091155;28;20105;-64
2021/12/12 05:56:55;;;;;;;5.40;4.18;;;;;;;;;;5090213;28;20040;-64
2021/12/12 05:59:21;;;;;;;5.57;4.03;;;;;;;;;;5103895;28;20044;-64
2021/12/12 06:01:48;;;;;;;5.28;3.80;;;;;;;;;;5111083;28;20052;-63
2021/12/12 06:04:17;;;;;;;4.30;3.67;;;;;;;;;;5110313;28;20607;-64
2021/12/12 06:06:43;;;;;;;5.03;4.00;;;;;;;;;;5112233;28;20145;-63
2021/12/12 06:09:11;;;;;;;5.38;3.80;;;;;;;;;;5111276;28;20093;-63
2021/12/12 06:11:38;;;;;;;5.75;4.30;;;;;;;;;;5111186;28;20043;-63
2021/12/12 06:14:06;;;;;;;5.93;4.07;;;;;;;;;;5111046;28;20101;-64
2021/12/12 06:16:33;;;;;;;6.10;4.43;;;;;;;;;;5110481;28;20090;-63
2021/12/12 06:19:00;;;;;;;5.80;4.20;;;;;;;;;;5110915;28;20105;-63
2021/12/12 06:21:28;;;;;;;5.28;4.13;;;;;;;;;;5111289;28;20104;-63
2021/12/12 06:23:55;;;;;;;6.10;3.88;;;;;;;;;;5110068;28;20052;-63
2021/12/12 06:26:22;;;;;;;4.13;3.72;;;;;;;;;;5111221;28;20451;-63
2021/12/12 06:28:49;;;;;;;5.05;4.05;;;;;;;;;;5113874;28;20084;-63
2021/12/12 06:31:16;;;;;;;4.30;3.90;;;;;;;;;;5113950;28;20486;-64
2021/12/12 06:33:42;;;;;;;6.05;4.75;;;;;;;;;;5115463;28;20100;-64
2021/12/12 06:36:10;;;;;;;5.10;4.35;;;;;;;;;;5114829;28;20048;-64
2021/12/12 06:38:39;;;;;;;6.57;4.43;;;;;;;;;;5113949;28;20044;-64
2021/12/12 06:41:05;;;;;;;5.15;4.18;;;;;;;;;;5114399;28;20047;-64
2021/12/12 06:43:32;;;;;;;4.32;3.92;;;;;;;;;;5114657;28;20448;-64
2021/12/12 06:45:58;;;;;;;6.60;4.63;;;;;;;;;;5113573;28;20449;-64
2021/12/12 06:48:25;;;;;;;4.57;4.07;;;;;;;;;;5114519;28;20115;-64
2021/12/12 06:50:54;;;;;;;5.20;4.60;;;;;;;;;;5114373;28;20044;-64
2021/12/12 06:53:22;;;;;;;6.47;4.88;;;;;;;;;;5113734;28;20043;-64
2021/12/12 06:55:49;;;;;;;5.80;4.32;;;;;;;;;;5114266;28;20047;-64
2021/12/12 06:58:17;;;;;;;4.88;4.28;;;;;;;;;;5114226;28;20085;-63
2021/12/12 07:00:44;;;;;;;5.65;4.55;;;;;;;;;;5113079;28;20044;-64
2021/12/12 07:03:13;;;;;;;5.40;4.70;;;;;;;;;;5114229;28;20513;-60
2021/12/12 07:05:39;;;;;;;6.80;4.85;;;;;;;;;;5113601;28;20088;-62
2021/12/12 07:08:05;;;;;;;5.88;5.10;;;;;;;;;;5113762;28;20047;-62
2021/12/12 07:10:32;;;;;;;5.88;5.05;;;;;;;;;;5114156;28;20044;-64
2021/12/12 07:13:00;;;;;;;5.25;4.75;;;;;;;;;;5113090;28;20104;-61
2021/12/12 07:15:27;;;;;;;7.10;5.63;;;;;;;;;;5114220;28;20105;-64
2021/12/12 07:17:54;;;;;;;9.75;5.70;;;;;;;;;;5113623;28;20120;-62
2021/12/12 07:20:21;;;;;;;10.07;5.38;;;;;;;;;;5113304;28;20047;-62
2021/12/12 07:22:47;;;;;;;6.63;5.15;;;;;;;;;;5113631;28;20104;-62
2021/12/12 07:25:13;;;;;;;6.00;5.30;;;;;;;;;;5113604;28;20048;-61
2021/12/12 07:27:39;;;;;;;11.02;6.00;;;;;;;;;;5112945;28;20485;-60
2021/12/12 07:30:08;;;;;;;6.35;5.40;;;;;;;;;;5113566;28;20047;-60
2021/12/12 07:32:36;;;;;;;8.05;5.57;;;;;;;;;;5113936;28;20448;-61
2021/12/12 07:35:03;;;;;;;8.27;5.80;;;;;;;;;;5112592;28;20051;-60
2021/12/12 07:37:29;;;;;;;8.25;6.00;;;;;;;;;;5113567;28;20040;-60
2021/12/12 07:39:56;;;;;;;8.07;6.32;;;;;;;;;;5112222;28;20043;-61
2021/12/12 07:42:23;;;;;;;11.77;6.65;;;;;;;;;;5112869;28;20055;-61
2021/12/12 07:44:49;;;;;;;7.88;6.53;;;;;;;;;;5113334;28;20056;-61
2021/12/12 07:47:17;;;;;;;7.97;6.13;;;;;;;;;;5113527;28;20101;-61
2021/12/12 07:49:46;;;;;;;8.95;6.32;;;;;;;;;;5112531;28;20040;-61
2021/12/12 07:52:14;;;;;;;9.13;6.75;;;;;;;;;;5113568;28;20040;-60
2021/12/12 07:54:41;;;;;;;10.50;6.43;;;;;;;;;;5113215;28;20044;-59
2021/12/12 07:57:07;;;;;;;8.70;6.70;;;;;;;;;;5113608;28;20050;-60
2021/12/12 07:59:35;;;;;;;8.20;7.05;;;;;;;;;;5112874;28;20048;-61
2021/12/12 08:02:02;;;;;;;9.02;7.32;;;;;;;;;;5112373;28;20054;-61
2021/12/12 08:04:30;;;;;;;8.98;7.30;;;;;;;;;;5113121;28;20103;-61
2021/12/12 08:06:57;;;;;;;9.70;7.60;;;;;;;;;;5112649;28;20065;-61
2021/12/12 08:09:24;;;;;;;11.65;8.07;;;;;;;;;;5112638;28;20047;-61
2021/12/12 08:11:50;;;;;;;8.65;7.75;;;;;;;;;;5112772;28;20436;-61
2021/12/12 08:14:18;;;;;;;10.43;8.02;;;;;;;;;;5113047;28;20077;-61
2021/12/12 08:16:45;;;;;;;10.82;8.95;;;;;;;;;;5111861;28;20547;-62
2021/12/12 08:19:11;;;;;;;10.98;8.95;;;;;;;;;;5112794;28;20047;-64
2021/12/12 08:21:39;;;;;;;10.93;9.57;;;;;;;;;;5112786;28;20047;-63
2021/12/12 08:24:06;;;;;;;11.95;9.90;;;;;;;;;;5111667;28;20394;-63
2021/12/12 08:26:33;;;;;;;12.15;9.60;;;;;;;;;;5112904;28;20092;-63
2021/12/12 08:29:00;;;;;;;12.98;9.35;;;;;;;;;;5112598;28;20047;-66
2021/12/12 08:31:26;;;;;;;14.55;10.35;;;;;;;;;;5111860;28;20052;-65
2021/12/12 08:33:53;;;;;;;12.15;9.82;;;;;;;;;;5112388;28;20044;-65
2021/12/12 08:36:19;;;;;;;14.57;10.38;;;;;;;;;;5112485;28;20459;-65
2021/12/12 08:38:46;;;;;;;17.25;10.88;;;;;;;;;;5111612;28;20052;-66
2021/12/12 08:41:13;;;;;;;15.38;10.80;;;;;;;;;;5112711;28;20050;-63
2021/12/12 08:43:39;;;;;;;18.08;11.80;;;;;;;;;;5112533;28;20451;-63
2021/12/12 08:46:07;;;;;;;13.85;9.88;;;;;;;;;;5111472;28;20040;-63
2021/12/12 08:48:34;;;;;;;15.63;10.75;;;;;;;;;;5112321;28;20052;-63
2021/12/12 08:51:05;;;;;;;14.40;9.52;;;;;;;;;;5111109;28;20551;-63
2021/12/12 08:53:31;;;;;;;15.32;10.48;;;;;;;;;;5112554;28;20047;-63
2021/12/12 08:56:00;;;;;;;16.40;11.25;;;;;;;;;;5112061;28;20052;-62
2021/12/12 08:58:27;;;;;;;15.45;11.40;;;;;;;;;;5111592;28;20047;-61
2021/12/12 09:00:55;;;;;;;16.05;10.38;;;;;;;;;;5090611;28;20097;-62
2021/12/12 09:03:23;;;;;;;19.92;11.80;;;;;;;;;;5109451;28;20085;-61
2021/12/12 09:05:50;;;;;;;17.05;12.02;;;;;;;;;;5110640;27;20039;-61
2021/12/12 09:08:18;;;;;;;19.25;12.65;;;;;;;;;;5112124;28;20048;-61
2021/12/12 09:10:47;;;;;;;25.35;14.90;;;;;;;;;;5111756;28;20044;-62
2021/12/12 09:13:17;;;;;;;20.85;14.00;;;;;;;;;;5111073;28;20486;-62
2021/12/12 09:15:45;;;;;;;20.10;14.07;;;;;;;;;;5111756;28;20112;-63
2021/12/12 09:18:13;;;;;;;25.92;14.65;;;;;;;;;;5112105;28;20039;-62
2021/12/12 09:20:47;;;;;;;22.27;14.48;;;;;;;;;;5111305;28;20197;-62
2021/12/12 09:23:17;;;;;;;23.25;14.90;;;;;;;;;;5112034;28;20052;-61
2021/12/12 09:25:50;;;;;;;22.45;13.98;;;;;;;;;;5111316;28;20101;-63
2021/12/12 09:28:23;;;;;;;23.38;15.35;;;;;;;;;;5110622;28;20478;-64
2021/12/12 09:30:49;;;;;;;22.20;15.23;;;;;;;;;;5110974;28;20493;-63
2021/12/12 09:33:19;;;;;;;19.35;14.30;;;;;;;;;;5110967;28;20047;-62
2021/12/12 09:35:48;;;;;;;24.70;14.93;;;;;;;;;;5111504;28;20069;-63
2021/12/12 09:38:17;;;;;;;26.92;16.77;;;;;;;;;;5111837;28;20045;-61
2021/12/12 09:40:54;;;;;;;21.92;16.00;;;;;;;;;;5110587;28;20040;-60
2021/12/12 09:43:34;;;;;;;22.63;15.43;;;;;;;;;;5111902;28;20088;-61
2021/12/12 09:46:06;;;;;;;20.23;15.27;;;;;;;;;;5111234;28;20100;-62
2021/12/12 09:51:34;;;;;;;19.92;15.77;;;;;;;;;;5111703;28;20429;-61
2021/12/12 09:54:09;;;;;;;23.27;16.10;;;;;;;;;;5110696;28;20100;-61
2021/12/12 09:56:38;;;;;;;22.77;15.77;;;;;;;;;;5110086;28;20462;-60
2021/12/12 09:59:09;;;;;;;20.83;15.52;;;;;;;;;;5110597;28;20044;-60
2021/12/12 10:01:38;;;;;;;20.63;15.65;;;;;;;;;;5109625;28;20082;-61
2021/12/12 10:04:09;;;;;;;22.65;15.90;;;;;;;;;;5114404;28;20050;-61
2021/12/12 10:06:41;;;;;;;19.35;15.60;;;;;;;;;;5108560;28;20031;-60
2021/12/12 10:09:08;;;;;;;22.80;16.08;;;;;;;;;;5114221;28;20058;-61
2021/12/12 10:11:38;;;;;;;22.08;16.52;;;;;;;;;;5114975;28;20379;-61
2021/12/12 10:14:08;;;;;;;24.92;16.00;;;;;;;;;;5114717;28;20502;-61
2021/12/12 10:16:37;;;;;;;21.55;16.10;;;;;;;;;;5114281;28;20047;-61
2021/12/12 10:19:07;;;;;;;22.40;16.85;;;;;;;;;;5114916;28;20039;-61
2021/12/12 10:21:37;;;;;;;20.13;13.70;;;;;;;;;;5115320;28;20100;-60
2021/12/12 10:24:07;;;;;;;22.10;16.33;;;;;;;;;;5113944;28;20054;-60
2021/12/12 10:26:36;;;;;;;20.58;14.50;;;;;;;;;;5114049;28;20112;-60
2021/12/12 10:29:06;;;;;;;23.20;14.68;;;;;;;;;;5114791;28;20571;-60
2021/12/12 10:31:39;;;;;;;19.95;14.65;;;;;;;;;;5114306;28;20090;-60
2021/12/12 10:34:08;;;;;;;18.10;14.23;;;;;;;;;;5114703;28;20100;-60
2021/12/12 10:36:36;;;;;;;16.73;13.95;;;;;;;;;;5114143;28;20047;-61
2021/12/12 10:39:05;;;;;;;19.40;15.00;;;;;;;;;;5114567;28;20048;-61
2021/12/12 10:41:34;;;;;;;17.48;14.18;;;;;;;;;;5114779;28;20058;-60
2021/12/12 10:44:03;;;;;;;20.85;14.45;;;;;;;;;;5113666;28;20189;-60
2021/12/12 10:46:33;;;;;;;20.83;14.75;;;;;;;;;;5111933;28;20104;-60
2021/12/12 10:49:07;;;;;;;18.65;13.82;;;;;;;;;;5094291;28;20052;-60
2021/12/12 10:51:38;;;;;;;17.48;13.95;;;;;;;;;;5093623;28;20065;-60
2021/12/12 10:54:06;;;;;;;17.25;13.60;;;;;;;;;;5093984;28;20044;-60
2021/12/12 10:56:35;;;;;;;16.92;14.23;;;;;;;;;;5094972;28;20444;-60
2021/12/12 10:59:03;;;;;;;20.05;13.77;;;;;;;;;;5103434;28;20044;-61
2021/12/12 11:01:31;;;;;;;17.50;13.80;;;;;;;;;;5114272;28;20136;-61
2021/12/12 11:04:03;;;;;;;15.57;12.75;;;;;;;;;;5114244;28;20100;-62
2021/12/12 11:06:33;;;;;;;16.20;12.70;;;;;;;;;;5113510;28;20096;-60
2021/12/12 11:09:02;;;;;;;16.50;13.55;;;;;;;;;;5113675;28;20035;-60
2021/12/12 11:11:32;;;;;;;15.73;13.05;;;;;;;;;;5114251;28;20066;-60
2021/12/12 11:14:02;;;;;;;15.48;12.90;;;;;;;;;;5111801;28;20047;-60
2021/12/12 11:16:30;;;;;;;14.10;11.70;;;;;;;;;;5114237;28;20044;-60
2021/12/12 11:18:58;;;;;;;13.70;12.18;;;;;;;;;;5112866;28;20378;-60
2021/12/12 11:21:27;;;;;;;14.50;10.90;;;;;;;;;;5114229;28;20039;-60
2021/12/12 11:23:58;;;;;;;12.52;11.00;;;;;;;;;;5113847;28;20039;-60
2021/12/12 11:26:28;;;;;;;13.50;11.50;;;;;;;;;;5113288;28;20043;-60
2021/12/12 11:28:56;;;;;;;13.20;10.32;;;;;;;;;;5113467;28;20048;-60
2021/12/12 11:31:32;;;;;;;13.07;11.68;;;;;;;;;;5113678;28;20494;-60
2021/12/12 11:33:58;;;;;;;;;;;;;;;;;;5113429;28;20054;-59
2021/12/12 11:36:26;;;;;;;13.73;11.90;;;;;;;;;;5113791;27;20428;-59
2021/12/12 11:39:01;;;;;;;13.15;11.15;;;;;;;;;;5113462;28;20047;-60
2021/12/12 11:41:33;;;;;;;11.87;10.53;;;;;;;;;;5112919;28;20047;-60
2021/12/12 11:44:04;;;;;;;12.65;10.60;;;;;;;;;;5113675;28;20043;-59
2021/12/12 11:46:33;;;;;;;11.73;10.52;;;;;;;;;;5113870;28;20040;-59
2021/12/12 11:49:03;;;;;;;12.10;10.80;;;;;;;;;;5112691;28;20043;-60
2021/12/12 11:51:31;;;;;;;11.50;10.30;;;;;;;;;;5113526;27;20048;-60
2021/12/12 11:54:01;;;;;;;12.45;10.75;;;;;;;;;;5112300;27;20125;-60
2021/12/12 11:56:29;;;;;;;12.13;10.68;;;;;;;;;;5113178;28;20089;-60
2021/12/12 11:59:09;;;;;;;12.07;10.88;;;;;;;;;;5113145;28;20047;-59
2021/12/12 12:01:44;;;;;;;12.18;10.98;;;;;;;;;;5112148;28;20040;-59
2021/12/12 12:04:13;;;;;;;11.65;10.45;;;;;;;;;;5113243;28;20428;-59
2021/12/12 12:06:46;;;;;;;11.25;10.15;;;;;;;;;;5113018;28;20036;-59
2021/12/12 12:09:22;;;;;;;11.88;10.68;;;;;;;;;;5112411;28;20077;-59
2021/12/12 12:12:00;;;;;;;11.98;10.43;;;;;;;;;;5113042;28;20445;-59
2021/12/12 12:14:33;;;;;;;13.00;10.25;;;;;;;;;;5113135;28;20048;-60
2021/12/12 12:17:06;;;;;;;12.52;10.68;;;;;;;;;;5111707;28;20067;-60
2021/12/12 12:19:36;;;;;;;11.10;10.00;;;;;;;;;;5112973;28;20051;-60
2021/12/12 12:22:12;;;;;;;13.02;11.70;;;;;;;;;;5111682;28;20501;-60
2021/12/12 12:24:43;;;;;;;10.85;9.75;;;;;;;;;;5112871;28;20039;-60
2021/12/12 12:27:11;;;;;;;12.95;10.77;;;;;;;;;;5112536;28;20122;-60
2021/12/12 12:29:52;;;;;;;12.52;11.27;;;;;;;;;;5111877;27;20055;-60
2021/12/12 12:32:36;;;;;;;11.70;10.52;;;;;;;;;;5092579;28;20445;-62
2021/12/12 12:35:21;;;;;;;12.70;11.40;;;;;;;;;;5092318;28;20105;-60
2021/12/12 12:38:37;;;;;;;12.25;10.95;;;;;;;;;;5091252;28;20105;-59
2021/12/12 12:41:22;;;;;;;13.63;10.98;;;;;;;;;;5092567;28;20105;-60
2021/12/12 12:44:03;;;;;;;12.45;11.05;;;;;;;;;;5108576;28;20444;-60
2021/12/12 12:46:48;;;;;;;11.48;10.32;;;;;;;;;;5109070;28;20035;-60
2021/12/12 12:49:33;;;;;;;12.98;11.57;;;;;;;;;;5091895;28;20448;-60
2021/12/12 12:52:17;;;;;;;12.18;11.00;;;;;;;;;;5091071;28;20044;-61
2021/12/12 12:54:48;;;;;;;11.45;10.32;;;;;;;;;;5091487;28;20051;-61
2021/12/12 12:57:22;;;;;;;12.10;10.82;;;;;;;;;;5091133;28;20047;-61
2021/12/12 12:59:55;;;;;;;12.07;10.88;;;;;;;;;;5108206;28;20043;-61
2021/12/12 13:02:23;;;;;;;12.13;10.93;;;;;;;;;;5112348;28;20044;-61
2021/12/12 13:05:11;;;;;;;12.63;11.43;;;;;;;;;;5111097;28;20100;-61
2021/12/12 13:07:59;;;;;;;13.07;11.70;;;;;;;;;;5112350;28;20043;-61
2021/12/12 13:10:29;;;;;;;12.90;11.07;;;;;;;;;;5111911;28;20048;-61
2021/12/12 13:13:03;;;;;;;12.32;11.13;;;;;;;;;;5110859;28;20035;-61
2021/12/12 13:15:45;;;;;;;12.55;11.32;;;;;;;;;;5111909;28;20039;-61
2021/12/12 13:18:17;;;;;;;12.85;11.55;;;;;;;;;;5111894;28;20047;-61
2021/12/12 13:20:52;;;;;;;12.65;11.35;;;;;;;;;;5111451;28;20552;-61
2021/12/12 13:23:24;;;;;;;12.25;10.93;;;;;;;;;;5110444;28;20040;-61
2021/12/12 13:25:54;;;;;;;12.40;11.20;;;;;;;;;;5110545;28;20055;-61
2021/12/12 13:28:27;;;;;;;12.70;11.50;;;;;;;;;;5111936;28;20047;-61
2021/12/12 13:30:59;;;;;;;12.07;10.75;;;;;;;;;;5111433;28;20266;-61
2021/12/12 13:33:31;;;;;;;12.75;11.45;;;;;;;;;;5111006;28;20051;-61
2021/12/12 13:36:02;;;;;;;12.32;11.10;;;;;;;;;;5111562;28;20044;-61
2021/12/12 13:38:33;;;;;;;13.23;11.82;;;;;;;;;;5110789;28;20066;-61
2021/12/12 13:41:04;;;;;;;12.35;11.15;;;;;;;;;;5111267;28;20040;-61
2021/12/12 13:43:35;;;;;;;12.07;10.90;;;;;;;;;;5111868;28;20073;-61
2021/12/12 13:46:07;;;;;;;13.88;12.48;;;;;;;;;;5111393;28;20043;-61
2021/12/12 13:48:36;;;;;;;12.90;11.60;;;;;;;;;;5110889;28;20096;-61
2021/12/12 13:51:15;;;;;;;12.52;11.25;;;;;;;;;;5111120;28;20051;-61
2021/12/12 13:53:43;;;;;;;12.40;11.20;;;;;;;;;;5111013;28;20047;-61
2021/12/12 13:56:16;;;;;;;12.73;11.45;;;;;;;;;;5111630;28;20040;-62
2021/12/12 13:58:47;;;;;;;13.38;12.07;;;;;;;;;;5111088;28;20478;-61
2021/12/12 14:01:16;;;;;;;13.40;12.00;;;;;;;;;;5110330;28;20109;-61
2021/12/12 14:03:46;;;;;;;13.68;12.38;;;;;;;;;;5111318;28;20116;-61
2021/12/12 14:06:15;;;;;;;13.65;12.27;;;;;;;;;;5111515;28;20048;-61
2021/12/12 14:08:44;;;;;;;13.57;12.18;;;;;;;;;;5110562;28;20043;-61
2021/12/12 14:11:17;;;;;;;13.35;12.02;;;;;;;;;;5111249;28;20482;-61
2021/12/12 14:13:44;;;;;;;13.82;12.43;;;;;;;;;;5110882;28;20043;-61
2021/12/12 14:16:13;;;;;;;13.82;12.43;;;;;;;;;;5109968;28;20570;-60
2021/12/12 14:18:41;;;;;;;12.95;11.75;;;;;;;;;;5110772;28;20490;-60
2021/12/12 14:21:09;;;;;;;13.40;12.00;;;;;;;;;;5110786;28;20048;-60
2021/12/12 14:23:36;;;;;;;12.85;11.55;;;;;;;;;;5109767;28;20050;-60
2021/12/12 14:26:06;;;;;;;13.15;11.75;;;;;;;;;;5110606;28;20056;-60
2021/12/12 14:28:36;;;;;;;12.75;11.50;;;;;;;;;;5110389;28;20044;-61
2021/12/12 14:31:06;;;;;;;14.50;11.90;;;;;;;;;;5108213;28;20043;-61
2021/12/12 14:33:35;;;;;;;12.88;11.52;;;;;;;;;;5110656;28;20501;-61
2021/12/12 14:36:02;;;;;;;12.38;11.07;;;;;;;;;;5109296;28;20047;-63
2021/12/12 14:38:29;;;;;;;12.65;11.45;;;;;;;;;;5110741;28;20093;-63
2021/12/12 14:40:58;;;;;;;12.68;11.38;;;;;;;;;;5106672;28;20043;-64
2021/12/12 14:43:26;;;;;;;12.88;11.57;;;;;;;;;;5110010;28;20052;-63
2021/12/12 14:45:55;;;;;;;13.15;11.80;;;;;;;;;;5111047;28;20371;-63
2021/12/12 14:48:25;;;;;;;13.65;12.25;;;;;;;;;;5111701;28;20055;-64
2021/12/12 14:50:53;;;;;;;13.30;11.98;;;;;;;;;;5113360;28;20055;-64
2021/12/12 14:53:21;;;;;;;13.57;11.45;;;;;;;;;;5114422;28;20324;-63
2021/12/12 14:55:49;;;;;;;12.98;11.65;;;;;;;;;;5113853;27;20044;-63
2021/12/12 14:58:17;;;;;;;12.82;11.63;;;;;;;;;;5114022;28;20096;-63
2021/12/12 15:00:47;;;;;;;12.60;11.30;;;;;;;;;;5113786;28;20060;-63
2021/12/12 15:03:19;;;;;;;13.25;11.95;;;;;;;;;;5114241;28;20069;-63